Time;durP1;ratioP1;P1;durP2;ratioP2;P2;SDS_P1;SDS_P2;PMS_P1;PMS_P2;Temp;Humidity;BMP_temperature;BMP_pressure;BME280_temperature;BME280_humidity;BME280_pressure;Samples;Min_cycle;Max_cycle;Signal;HPM_P1;HPM_P2
2023/04/04 00:00:25;;;;;;;3.47;1.93;;;2.60;97.30;;;;;;5064659;28;20199;-85
2023/04/04 00:02:50;;;;;;;1.17;1.07;;;2.60;97.30;;;;;;5059312;28;20545;-86
2023/04/04 00:05:16;;;;;;;1.17;1.07;;;2.60;97.30;;;;;;5071197;28;20175;-86
2023/04/04 00:07:45;;;;;;;1.10;1.00;;;2.50;97.30;;;;;;5060926;28;21548;-85
2023/04/04 00:10:11;;;;;;;2.20;2.00;;;2.50;97.30;;;;;;5066546;28;20477;-85
2023/04/04 00:12:37;;;;;;;1.80;1.70;;;2.50;97.30;;;;;;5062458;28;20940;-80
2023/04/04 00:15:03;;;;;;;1.10;1.00;;;2.50;97.30;;;;;;5060114;28;20330;-79
2023/04/04 00:17:29;;;;;;;1.00;0.90;;;2.50;97.30;;;;;;5067695;28;20207;-80
2023/04/04 00:19:56;;;;;;;1.30;1.20;;;2.50;97.30;;;;;;5056479;28;20724;-80
2023/04/04 00:22:21;;;;;;;1.23;1.13;;;2.50;97.30;;;;;;5062709;28;20194;-79
2023/04/04 00:24:47;;;;;;;2.50;1.83;;;2.50;97.30;;;;;;5056823;28;20430;-81
2023/04/04 00:27:13;;;;;;;4.30;2.43;;;2.40;97.30;;;;;;5061559;28;20209;-88
2023/04/04 00:29:39;;;;;;;3.30;3.10;;;2.40;97.30;;;;;;5065125;28;20410;-86
2023/04/04 00:32:04;;;;;;;2.27;2.07;;;2.40;97.30;;;;;;5065427;28;20227;-87
2023/04/04 00:34:30;;;;;;;8.90;3.13;;;2.40;97.30;;;;;;5073009;28;20168;-86
2023/04/04 00:36:56;;;;;;;1.47;1.37;;;2.40;97.30;;;;;;5049379;28;20624;-85
2023/04/04 00:39:22;;;;;;;1.50;1.40;;;2.40;97.30;;;;;;5063837;28;20561;-85
2023/04/04 00:41:48;;;;;;;2.37;2.17;;;2.40;97.30;;;;;;5054095;28;20207;-85
2023/04/04 00:44:14;;;;;;;4.33;2.87;;;2.30;97.30;;;;;;5053131;28;20881;-79
2023/04/04 00:46:40;;;;;;;2.13;1.97;;;2.30;97.30;;;;;;5056791;28;20421;-79
2023/04/04 00:49:05;;;;;;;6.53;3.90;;;2.30;97.30;;;;;;5060402;28;20419;-80
2023/04/04 00:51:32;;;;;;;1.47;1.40;;;2.30;97.30;;;;;;5055143;28;20606;-80
2023/04/04 00:53:58;;;;;;;1.53;1.43;;;2.30;97.30;;;;;;5047125;28;20187;-79
2023/04/04 00:56:24;;;;;;;1.30;1.20;;;2.30;97.30;;;;;;5055617;28;20419;-79
2023/04/04 00:58:50;;;;;;;2.90;1.97;;;2.20;97.30;;;;;;5054302;28;20259;-81
2023/04/04 01:01:16;;;;;;;1.63;1.53;;;2.20;97.30;;;;;;5055353;28;20264;-80
2023/04/04 01:03:43;;;;;;;2.17;2.00;;;2.20;97.30;;;;;;5055081;28;20437;-80
2023/04/04 01:06:09;;;;;;;1.20;1.10;;;2.20;97.30;;;;;;5055366;28;20461;-80
2023/04/04 01:08:36;;;;;;;2.60;1.20;;;2.20;97.30;;;;;;5039704;28;20431;-81
2023/04/04 01:11:02;;;;;;;1.87;1.77;;;2.20;97.30;;;;;;5050107;28;20278;-79
2023/04/04 01:13:28;;;;;;;1.20;1.10;;;2.10;97.30;;;;;;5047392;28;20831;-79
2023/04/04 01:15:54;;;;;;;2.50;1.40;;;2.10;97.30;;;;;;5049361;28;20438;-79
2023/04/04 01:18:22;;;;;;;1.57;1.50;;;2.00;97.30;;;;;;5054304;28;20639;-79
2023/04/04 01:21:04;;;;;;;1.23;1.13;;;2.00;97.30;;;;;;5053554;28;20210;-79
2023/04/04 01:23:58;;;;;;;1.00;1.00;;;2.00;97.30;;;;;;5042244;28;20436;-79
2023/04/04 01:26:25;;;;;;;1.10;1.00;;;1.90;97.30;;;;;;5049645;28;20418;-80
2023/04/04 01:28:55;;;;;;;1.67;1.57;;;1.90;97.30;;;;;;5050880;28;20492;-79
2023/04/04 01:31:27;;;;;;;1.30;1.20;;;1.90;97.30;;;;;;5043285;28;20560;-79
2023/04/04 01:34:15;;;;;;;1.40;1.30;;;1.90;97.30;;;;;;5052338;28;20479;-80
2023/04/04 01:36:48;;;;;;;1.00;1.00;;;1.90;97.30;;;;;;5050998;28;20419;-79
2023/04/04 01:39:34;;;;;;;1.83;1.73;;;1.90;97.30;;;;;;5054166;28;20410;-82
2023/04/04 01:42:01;;;;;;;1.10;1.00;;;1.80;97.30;;;;;;5044383;28;20790;-79
2023/04/04 01:44:27;;;;;;;1.20;1.10;;;1.80;97.30;;;;;;5048766;28;20422;-79
2023/04/04 01:46:54;;;;;;;1.10;1.00;;;1.80;97.30;;;;;;5047366;28;20439;-82
2023/04/04 01:49:20;;;;;;;1.37;1.33;;;1.80;97.30;;;;;;5050093;28;20434;-79
2023/04/04 01:51:45;;;;;;;1.00;0.90;;;1.80;97.30;;;;;;5051738;28;20473;-84
2023/04/04 01:54:11;;;;;;;1.60;1.50;;;1.70;97.30;;;;;;5052857;28;20426;-85
2023/04/04 01:56:36;;;;;;;1.63;1.53;;;1.70;97.30;;;;;;5053279;28;20228;-84
2023/04/04 01:59:02;;;;;;;1.30;1.20;;;1.70;97.30;;;;;;5052851;28;20626;-85
2023/04/04 02:01:28;;;;;;;9.30;1.57;;;1.70;97.30;;;;;;5040757;28;20212;-79
2023/04/04 02:03:53;;;;;;;1.50;1.20;;;1.70;97.30;;;;;;5038305;28;20176;-82
2023/04/04 02:06:19;;;;;;;10.00;1.80;;;1.70;97.30;;;;;;5058957;28;20191;-79
2023/04/04 02:08:44;;;;;;;1.73;1.60;;;1.70;97.30;;;;;;5038213;28;20564;-79
2023/04/04 02:11:11;;;;;;;1.37;1.27;;;1.70;97.30;;;;;;5052814;28;20303;-84
2023/04/04 02:13:40;;;;;;;1.37;1.20;;;1.60;97.30;;;;;;5036761;28;20181;-85
2023/04/04 02:16:05;;;;;;;4.67;1.50;;;1.60;97.30;;;;;;5052910;28;20426;-83
2023/04/04 02:18:32;;;;;;;1.20;1.10;;;1.60;97.30;;;;;;5051510;28;20426;-84
2023/04/04 02:20:57;;;;;;;1.67;1.57;;;1.60;97.30;;;;;;5052271;28;20210;-84
2023/04/04 02:23:23;;;;;;;1.30;1.20;;;1.60;97.30;;;;;;5053381;28;20426;-82
2023/04/04 02:25:49;;;;;;;1.00;0.90;;;1.60;97.30;;;;;;5050130;28;20187;-82
2023/04/04 02:28:15;;;;;;;1.30;1.20;;;1.60;97.30;;;;;;5034598;28;20804;-85
2023/04/04 02:30:41;;;;;;;2.90;1.30;;;1.50;97.30;;;;;;5033101;28;20487;-86
2023/04/04 02:33:07;;;;;;;10.40;3.00;;;1.50;97.30;;;;;;5042293;28;20200;-85
2023/04/04 02:35:32;;;;;;;1.10;1.00;;;1.50;97.30;;;;;;5045918;28;20180;-87
2023/04/04 02:37:58;;;;;;;1.10;1.00;;;1.50;97.30;;;;;;5047780;28;20172;-87
2023/04/04 02:40:23;;;;;;;1.20;1.10;;;1.50;97.30;;;;;;5053016;28;20296;-83
2023/04/04 02:42:49;;;;;;;1.43;1.40;;;1.40;97.30;;;;;;5048616;28;20572;-86
2023/04/04 02:45:14;;;;;;;1.20;1.10;;;1.40;97.30;;;;;;5047503;28;20670;-82
2023/04/04 02:47:41;;;;;;;1.20;1.10;;;1.40;97.30;;;;;;5042865;28;20688;-86
2023/04/04 02:50:07;;;;;;;1.17;1.07;;;1.40;97.30;;;;;;5046035;28;20199;-86
2023/04/04 02:52:33;;;;;;;1.10;1.00;;;1.40;97.30;;;;;;5049716;28;20457;-83
2023/04/04 02:54:58;;;;;;;1.10;1.00;;;1.30;97.30;;;;;;5042314;28;20455;-85
2023/04/04 02:57:24;;;;;;;1.10;1.00;;;1.30;97.30;;;;;;5058118;28;20180;-85
2023/04/04 02:59:50;;;;;;;1.33;1.23;;;1.30;97.30;;;;;;5050068;28;20237;-79
2023/04/04 03:02:15;;;;;;;1.00;0.90;;;1.30;97.30;;;;;;5052125;28;20721;-86
2023/04/04 03:04:41;;;;;;;1.10;1.00;;;1.20;97.30;;;;;;5051431;28;20248;-86
2023/04/04 03:07:06;;;;;;;2.73;1.17;;;1.20;97.30;;;;;;5048249;28;20211;-85
2023/04/04 03:09:32;;;;;;;1.60;1.50;;;1.20;97.30;;;;;;5044328;28;20212;-80
2023/04/04 03:12:00;;;;;;;1.10;1.00;;;1.20;97.30;;;;;;5051410;28;20219;-83
2023/04/04 03:14:25;;;;;;;3.90;2.90;;;1.10;97.30;;;;;;5044071;28;20184;-85
2023/04/04 03:16:52;;;;;;;12.83;1.33;;;1.10;97.30;;;;;;5049565;28;21002;-81
2023/04/04 03:19:18;;;;;;;1.40;1.30;;;1.10;97.30;;;;;;5044475;28;20176;-86
2023/04/04 03:21:43;;;;;;;1.00;0.90;;;1.10;97.30;;;;;;5046457;28;20434;-84
2023/04/04 03:24:09;;;;;;;12.70;1.70;;;1.00;97.30;;;;;;5034380;28;20476;-86
2023/04/04 03:26:34;;;;;;;14.87;2.80;;;1.00;97.30;;;;;;5050347;28;20185;-84
2023/04/04 03:29:03;;;;;;;1.30;1.20;;;1.00;97.30;;;;;;5042160;28;20314;-86
2023/04/04 03:31:29;;;;;;;1.20;1.10;;;0.90;97.30;;;;;;5044136;28;20231;-82
2023/04/04 03:33:55;;;;;;;2.90;2.70;;;0.90;97.30;;;;;;5044068;28;20460;-87
2023/04/04 03:36:21;;;;;;;1.10;1.00;;;0.90;97.30;;;;;;5051923;28;20506;-87
2023/04/04 03:38:47;;;;;;;1.67;1.57;;;0.90;97.30;;;;;;5051771;28;20259;-86
2023/04/04 03:41:12;;;;;;;1.20;1.10;;;0.80;97.30;;;;;;5052484;28;20526;-82
2023/04/04 03:43:38;;;;;;;1.43;1.33;;;0.80;97.30;;;;;;5051592;28;20196;-86
2023/04/04 03:46:04;;;;;;;1.27;1.17;;;0.80;97.30;;;;;;5052960;28;20188;-84
2023/04/04 03:48:30;;;;;;;1.10;1.00;;;0.70;97.30;;;;;;5050111;28;20777;-83
2023/04/04 03:50:56;;;;;;;1.10;1.00;;;0.70;97.30;;;;;;5052453;28;20497;-84
2023/04/04 03:53:23;;;;;;;1.00;0.90;;;0.70;97.30;;;;;;5051146;28;20509;-84
2023/04/04 03:55:49;;;;;;;0.90;0.80;;;0.60;97.30;;;;;;5052397;28;20422;-86
2023/04/04 03:58:14;;;;;;;17.00;2.10;;;0.60;97.30;;;;;;5046371;28;20476;-85
2023/04/04 04:00:40;;;;;;;1.10;1.00;;;0.60;97.30;;;;;;5053948;28;20268;-88
2023/04/04 04:03:06;;;;;;;2.50;1.90;;;0.60;97.30;;;;;;5050122;28;20253;-86
2023/04/04 04:05:31;;;;;;;1.13;1.03;;;0.60;97.30;;;;;;5053812;28;20692;-87
2023/04/04 04:07:57;;;;;;;1.70;1.60;;;0.60;97.30;;;;;;5053400;28;20190;-86
2023/04/04 04:10:22;;;;;;;1.10;1.00;;;0.60;97.30;;;;;;5049954;28;20215;-82
2023/04/04 04:12:48;;;;;;;1.23;1.17;;;0.50;97.30;;;;;;5055311;28;20179;-83
2023/04/04 04:15:14;;;;;;;1.00;0.90;;;0.50;97.30;;;;;;5054939;28;20647;-87
2023/04/04 04:17:39;;;;;;;1.30;1.20;;;0.50;97.30;;;;;;5061136;28;20182;-82
2023/04/04 04:20:09;;;;;;;1.40;1.30;;;0.50;97.30;;;;;;5052999;28;20256;-81
2023/04/04 04:22:35;;;;;;;1.23;1.13;;;0.50;97.30;;;;;;5054397;28;20678;-84
2023/04/04 04:25:01;;;;;;;1.30;1.20;;;0.50;97.30;;;;;;5054063;28;20438;-86
2023/04/04 04:27:29;;;;;;;1.10;1.00;;;0.40;97.30;;;;;;5048915;28;20458;-87
2023/04/04 04:29:55;;;;;;;1.60;1.50;;;0.40;97.30;;;;;;5050213;28;20290;-87
2023/04/04 04:32:21;;;;;;;1.50;1.40;;;0.40;97.30;;;;;;5050653;28;20489;-87
2023/04/04 04:34:49;;;;;;;1.00;0.90;;;0.40;97.30;;;;;;5055057;28;20172;-82
2023/04/04 04:37:17;;;;;;;11.63;1.30;;;0.40;97.30;;;;;;5056095;28;20371;-85
2023/04/04 04:39:42;;;;;;;1.10;1.00;;;0.30;97.30;;;;;;5052371;28;20463;-87
2023/04/04 04:42:08;;;;;;;1.00;0.90;;;0.30;97.30;;;;;;5062980;28;20436;-87
2023/04/04 04:44:33;;;;;;;1.10;1.00;;;0.30;97.30;;;;;;5061735;28;20453;-86
2023/04/04 04:46:58;;;;;;;1.20;1.10;;;0.30;97.30;;;;;;5050081;28;20187;-86
2023/04/04 04:49:24;;;;;;;1.50;1.40;;;0.30;97.30;;;;;;5044936;28;20171;-87
2023/04/04 04:51:49;;;;;;;1.13;1.03;;;0.30;97.30;;;;;;5051286;28;20235;-87
2023/04/04 04:54:15;;;;;;;1.17;1.07;;;0.30;97.30;;;;;;5057636;28;20175;-87
2023/04/04 04:56:40;;;;;;;4.87;3.27;;;0.40;97.30;;;;;;5049127;28;20225;-87
2023/04/04 04:59:07;;;;;;;1.57;1.47;;;0.40;97.30;;;;;;5050760;28;20182;-87
2023/04/04 05:01:33;;;;;;;1.10;1.00;;;0.40;97.30;;;;;;5051150;28;20222;-87
2023/04/04 05:03:58;;;;;;;1.77;1.57;;;0.40;97.30;;;;;;5051015;28;20418;-87
2023/04/04 05:06:24;;;;;;;1.47;1.37;;;0.50;97.30;;;;;;5051028;28;20196;-86
2023/04/04 05:08:49;;;;;;;2.43;2.23;;;0.50;97.30;;;;;;5049378;28;20187;-88
2023/04/04 05:11:15;;;;;;;1.00;0.90;;;0.50;97.30;;;;;;5048668;28;20199;-87
2023/04/04 05:13:40;;;;;;;1.30;1.20;;;0.50;97.30;;;;;;5048755;28;20182;-88
2023/04/04 05:16:06;;;;;;;1.30;1.20;;;0.50;97.30;;;;;;5048040;28;20198;-86
2023/04/04 05:18:32;;;;;;;3.17;2.20;;;0.50;97.30;;;;;;5045495;28;20188;-86
2023/04/04 05:20:57;;;;;;;1.40;1.30;;;0.50;97.30;;;;;;5048911;28;20453;-87
2023/04/04 05:23:23;;;;;;;1.10;1.00;;;0.50;97.30;;;;;;5049541;28;20190;-87
2023/04/04 05:25:50;;;;;;;1.10;1.00;;;0.50;97.30;;;;;;5051076;28;20677;-86
2023/04/04 05:28:16;;;;;;;1.17;1.07;;;0.50;97.30;;;;;;5050235;28;20594;-87
2023/04/04 05:42:56;;;;;;;1.10;1.00;;;0.50;97.30;;;;;;5113835;27;20338;-84
2023/04/04 05:45:22;;;;;;;1.00;0.90;;;0.60;97.30;;;;;;5114977;28;20864;-82
2023/04/04 05:47:47;;;;;;;1.10;1.00;;;0.60;97.30;;;;;;5106505;28;20420;-82
2023/04/04 05:50:13;;;;;;;1.00;0.90;;;0.60;97.30;;;;;;5105346;28;20231;-82
2023/04/04 05:52:39;;;;;;;1.00;0.90;;;0.70;97.30;;;;;;5114455;28;20189;-84
2023/04/04 05:55:04;;;;;;;1.37;1.27;;;0.70;97.30;;;;;;5116127;28;20574;-83
2023/04/04 05:57:31;;;;;;;1.30;1.20;;;0.70;97.30;;;;;;5115556;28;20173;-84
2023/04/04 05:59:57;;;;;;;1.43;1.30;;;0.70;97.30;;;;;;5114465;28;20415;-84
2023/04/04 06:02:23;;;;;;;1.40;1.30;;;0.80;97.30;;;;;;5114103;28;20411;-82
2023/04/04 06:04:48;;;;;;;1.33;1.23;;;0.80;97.30;;;;;;5112423;28;20831;-82
2023/04/04 06:07:14;;;;;;;2.23;1.20;;;0.90;97.30;;;;;;5110555;28;20227;-86
2023/04/04 06:09:40;;;;;;;1.00;0.90;;;0.90;97.30;;;;;;5115604;28;20193;-84
2023/04/04 06:12:06;;;;;;;1.47;1.10;;;1.00;97.30;;;;;;5111387;28;20465;-82
2023/04/04 06:14:31;;;;;;;1.37;1.27;;;1.00;97.30;;;;;;5108529;28;20637;-83
2023/04/04 06:16:57;;;;;;;1.60;1.50;;;1.10;97.30;;;;;;5114012;28;20423;-82
2023/04/04 06:19:23;;;;;;;1.27;1.17;;;1.10;97.30;;;;;;5106170;28;20266;-83
2023/04/04 06:21:48;;;;;;;5.20;1.77;;;1.10;97.30;;;;;;5105966;28;20439;-82
2023/04/04 06:24:14;;;;;;;1.10;1.00;;;1.10;97.30;;;;;;5109673;28;20185;-82
2023/04/04 06:26:39;;;;;;;1.70;1.57;;;1.10;97.30;;;;;;5109336;28;20239;-83
2023/04/04 06:29:05;;;;;;;1.50;1.07;;;1.10;97.30;;;;;;5113370;28;20733;-84
2023/04/04 06:31:30;;;;;;;1.13;1.03;;;1.10;97.30;;;;;;5113451;28;20210;-83
2023/04/04 06:33:56;;;;;;;0.90;0.80;;;1.10;97.30;;;;;;5113660;28;20186;-82
2023/04/04 06:36:22;;;;;;;1.77;1.50;;;1.20;97.30;;;;;;5109986;28;20217;-83
2023/04/04 06:38:48;;;;;;;1.40;1.30;;;;;;;;;;5112962;28;20423;-84
2023/04/04 06:41:13;;;;;;;1.37;1.27;;;1.20;97.30;;;;;;5114859;28;20293;-86
2023/04/04 06:43:38;;;;;;;1.10;1.00;;;1.30;97.30;;;;;;5104664;28;20456;-84
2023/04/04 06:46:05;;;;;;;1.30;1.20;;;1.30;97.30;;;;;;5101723;28;20269;-84
2023/04/04 06:48:30;;;;;;;1.30;1.20;;;1.40;97.30;;;;;;5091885;28;20635;-84
2023/04/04 06:50:56;;;;;;;1.10;1.00;;;1.40;97.30;;;;;;5098431;28;20475;-83
2023/04/04 06:53:22;;;;;;;1.17;1.07;;;1.50;97.30;;;;;;5094955;28;20240;-86
2023/04/04 06:55:48;;;;;;;1.47;1.37;;;1.50;97.30;;;;;;5088178;28;20186;-86
2023/04/04 06:58:13;;;;;;;1.20;1.10;;;1.60;97.30;;;;;;5101316;28;20411;-82
2023/04/04 07:00:42;;;;;;;1.30;1.20;;;1.70;97.30;;;;;;5093213;28;20294;-84
2023/04/04 07:03:07;;;;;;;1.00;0.90;;;1.80;97.30;;;;;;5095908;28;20186;-83
2023/04/04 07:05:38;;;;;;;4.80;1.73;;;1.70;97.30;;;;;;5088711;28;20447;-84
2023/04/04 07:08:03;;;;;;;1.10;1.00;;;1.70;97.30;;;;;;5099777;28;20185;-83
2023/04/04 07:10:29;;;;;;;1.10;1.00;;;1.80;97.30;;;;;;5096500;28;20465;-86
2023/04/04 07:12:54;;;;;;;1.63;1.53;;;1.80;97.30;;;;;;5098899;28;20185;-84
2023/04/04 07:15:20;;;;;;;1.23;0.87;;;1.80;97.30;;;;;;5093026;28;20270;-84
2023/04/04 07:17:46;;;;;;;1.00;0.90;;;1.90;97.30;;;;;;5093172;28;20187;-83
2023/04/04 07:20:12;;;;;;;1.00;0.90;;;2.00;97.30;;;;;;5099652;28;20683;-84
2023/04/04 07:22:38;;;;;;;1.77;1.67;;;2.10;97.30;;;;;;5100503;28;20187;-83
2023/04/04 07:25:05;;;;;;;5.93;1.87;;;2.20;97.30;;;;;;5098497;28;21023;-85
2023/04/04 07:27:31;;;;;;;1.67;1.57;;;2.30;97.30;;;;;;5100174;28;20428;-83
2023/04/04 07:29:56;;;;;;;1.20;1.10;;;2.30;97.30;;;;;;5097386;28;20430;-82
2023/04/04 07:32:22;;;;;;;1.10;1.00;;;2.30;97.30;;;;;;5098624;28;20198;-86
2023/04/04 07:34:48;;;;;;;1.50;1.40;;;2.40;97.30;;;;;;5098685;28;20182;-84
2023/04/04 07:37:14;;;;;;;1.67;1.20;;;2.40;97.30;;;;;;5092691;28;20182;-83
2023/04/04 07:39:39;;;;;;;1.20;1.10;;;2.50;97.30;;;;;;5097506;28;20440;-84
2023/04/04 07:42:05;;;;;;;3.70;1.87;;;2.60;97.30;;;;;;5100800;28;20233;-83
2023/04/04 07:44:31;;;;;;;1.10;1.00;;;2.70;97.30;;;;;;5098842;28;20192;-83
2023/04/04 07:46:56;;;;;;;1.63;1.23;;;2.80;97.30;;;;;;5092288;28;20413;-83
2023/04/04 07:49:22;;;;;;;1.37;1.10;;;2.80;97.30;;;;;;5097469;28;20602;-83
2023/04/04 07:51:47;;;;;;;6.93;1.73;;;2.90;97.30;;;;;;5092567;28;20237;-84
2023/04/04 07:54:13;;;;;;;1.43;1.33;;;3.00;97.30;;;;;;5093287;28;20178;-85
2023/04/04 07:56:39;;;;;;;1.10;1.00;;;3.10;97.30;;;;;;5093802;28;20235;-86
2023/04/04 07:59:04;;;;;;;1.00;0.90;;;3.20;97.30;;;;;;5110707;28;20182;-89
2023/04/04 08:01:30;;;;;;;1.87;1.77;;;3.30;97.30;;;;;;5107820;28;20194;-89
2023/04/04 08:03:55;;;;;;;1.20;1.10;;;3.40;97.30;;;;;;5100955;28;20542;-85
2023/04/04 08:06:21;;;;;;;1.60;1.50;;;3.50;97.30;;;;;;5091594;28;20179;-85
2023/04/04 08:08:47;;;;;;;1.07;0.97;;;3.50;97.30;;;;;;5090165;28;20202;-84
2023/04/04 08:11:12;;;;;;;0.90;0.90;;;3.60;97.30;;;;;;5089471;28;20209;-84
2023/04/04 08:13:38;;;;;;;1.43;1.33;;;3.70;97.30;;;;;;5090292;28;20252;-85
2023/04/04 08:16:04;;;;;;;1.87;1.77;;;3.90;97.30;;;;;;5092108;28;20793;-85
2023/04/04 08:18:31;;;;;;;2.23;2.03;;;4.00;96.80;;;;;;5098376;28;20171;-86
2023/04/04 08:20:56;;;;;;;1.07;0.97;;;4.10;96.30;;;;;;5093141;28;20435;-82
2023/04/04 08:23:22;;;;;;;1.40;1.30;;;4.20;96.50;;;;;;5088485;28;20819;-84
2023/04/04 08:25:47;;;;;;;4.97;1.50;;;4.30;95.40;;;;;;5088226;28;20190;-85
2023/04/04 08:28:14;;;;;;;2.73;2.53;;;4.20;94.90;;;;;;5087132;28;20182;-84
2023/04/04 08:30:40;;;;;;;1.73;1.10;;;4.20;94.50;;;;;;5092697;28;20225;-84
2023/04/04 08:33:05;;;;;;;5.70;1.20;;;4.30;94.30;;;;;;5094990;28;20421;-84
2023/04/04 08:35:31;;;;;;;1.27;1.20;;;4.40;94.20;;;;;;5089121;28;20708;-84
2023/04/04 08:37:56;;;;;;;1.20;1.10;;;4.50;94.20;;;;;;5090870;28;20170;-84
2023/04/04 08:40:22;;;;;;;1.60;1.50;;;4.70;92.90;;;;;;5080516;28;20753;-84
2023/04/04 08:42:50;;;;;;;4.30;1.90;;;4.80;93.80;;;;;;5095888;28;20189;-85
2023/04/04 08:45:20;;;;;;;1.03;0.97;;;4.80;92.20;;;;;;5086857;28;20186;-85
2023/04/04 08:47:49;;;;;;;1.00;0.90;;;4.90;93.00;;;;;;5093897;28;20483;-85
2023/04/04 08:50:16;;;;;;;2.40;1.57;;;5.10;93.20;;;;;;5092019;28;20792;-84
2023/04/04 08:52:43;;;;;;;1.60;1.40;;;5.30;93.10;;;;;;5084399;28;20471;-84
2023/04/04 08:55:10;;;;;;;1.10;1.00;;;5.40;91.60;;;;;;5083128;28;20436;-84
2023/04/04 08:57:36;;;;;;;1.10;1.00;;;5.50;90.10;;;;;;5085816;28;20948;-84
2023/04/04 09:00:06;;;;;;;1.50;1.40;;;5.70;89.90;;;;;;5091926;28;21014;-80
2023/04/04 09:02:56;;;;;;;1.00;0.90;;;5.80;89.10;;;;;;5087521;28;20401;-81
2023/04/04 09:05:25;;;;;;;2.07;1.10;;;5.90;89.80;;;;;;5088792;28;20413;-84
2023/04/04 09:07:55;;;;;;;1.73;1.20;;;5.90;88.40;;;;;;5096364;28;20409;-84
2023/04/04 09:10:24;;;;;;;1.30;1.20;;;6.00;88.10;;;;;;5087963;28;20483;-84
2023/04/04 09:16:26;;;;;;;2.30;1.53;;;5.70;86.80;;;;;;5053190;28;20885;-88
2023/04/04 09:18:54;;;;;;;1.10;1.00;;;5.60;87.40;;;;;;5084423;28;20413;-86
2023/04/04 09:21:22;;;;;;;2.30;1.00;;;5.30;87.00;;;;;;5095356;28;20440;-86
2023/04/04 09:24:36;;;;;;;1.03;0.93;;;5.10;87.10;;;;;;5096260;28;20454;-88
2023/04/04 09:27:15;;;;;;;1.00;0.90;;;5.00;87.50;;;;;;5063243;28;20456;-86
2023/04/04 09:29:46;;;;;;;1.33;1.23;;;5.00;87.90;;;;;;5094593;28;20428;-84
2023/04/04 09:32:15;;;;;;;2.43;1.47;;;5.00;88.30;;;;;;5092924;28;20468;-84
2023/04/04 09:34:44;;;;;;;1.60;1.30;;;5.00;88.10;;;;;;5091289;28;20498;-84
2023/04/04 09:37:15;;;;;;;1.43;1.07;;;4.90;87.70;;;;;;5094336;28;20448;-83
2023/04/04 09:39:53;;;;;;;1.33;1.23;;;4.90;87.80;;;;;;5081302;28;20452;-84
2023/04/04 09:42:26;;;;;;;1.10;1.00;;;4.90;87.00;;;;;;5090763;28;20472;-84
2023/04/04 09:44:55;;;;;;;1.30;1.07;;;4.80;87.00;;;;;;5096419;28;20529;-83
2023/04/04 09:47:26;;;;;;;1.10;1.00;;;4.70;86.90;;;;;;5079730;28;20421;-84
2023/04/04 09:50:04;;;;;;;1.00;0.90;;;4.60;86.00;;;;;;5086186;28;20421;-84
2023/04/04 09:52:34;;;;;;;1.50;1.40;;;4.60;86.50;;;;;;5086807;28;20516;-86
2023/04/04 09:55:04;;;;;;;1.20;1.10;;;4.70;86.60;;;;;;5095554;28;20409;-87
2023/04/04 09:57:36;;;;;;;1.50;1.40;;;4.80;86.90;;;;;;5092707;28;20424;-84
2023/04/04 10:00:09;;;;;;;0.90;0.80;;;5.00;85.10;;;;;;5086167;28;20428;-85
2023/04/04 10:02:46;;;;;;;1.03;0.93;;;5.40;86.00;;;;;;5084204;28;20699;-84
2023/04/04 10:05:45;;;;;;;0.90;0.83;;;5.80;84.30;;;;;;5089684;28;20704;-86
2023/04/04 10:08:25;;;;;;;1.10;1.00;;;6.00;83.20;;;;;;5078405;28;20447;-85
2023/04/04 10:14:23;;;;;;;1.10;1.00;;;5.50;82.00;;;;;;5065155;28;20416;-85
2023/04/04 10:17:05;;;;;;;1.10;1.00;;;5.30;82.80;;;;;;5085617;28;20400;-84
2023/04/04 10:20:16;;;;;;;1.03;0.93;;;5.40;83.10;;;;;;5090936;28;20461;-84
2023/04/04 10:22:46;;;;;;;1.30;1.20;;;5.80;83.00;;;;;;5088862;28;20413;-84
2023/04/04 10:25:14;;;;;;;0.90;0.80;;;6.20;81.60;;;;;;5086329;28;20440;-84
2023/04/04 10:27:43;;;;;;;1.00;0.90;;;6.50;82.40;;;;;;5087842;28;20460;-84
2023/04/04 10:30:15;;;;;;;1.10;1.03;;;6.70;81.40;;;;;;5094049;28;20806;-87
2023/04/04 10:33:14;;;;;;;1.43;1.33;;;6.50;81.00;;;;;;5099393;28;20423;-83
2023/04/04 10:36:00;;;;;;;1.20;1.10;;;6.40;81.10;;;;;;5094317;28;20416;-86
2023/04/04 10:38:30;;;;;;;1.23;1.13;;;6.10;81.40;;;;;;5086716;28;20424;-86
2023/04/04 10:40:59;;;;;;;1.10;1.00;;;6.00;81.80;;;;;;5089795;28;20529;-83
2023/04/04 10:44:15;;;;;;;1.20;1.10;;;5.80;81.30;;;;;;5089460;28;20424;-84
2023/04/04 10:47:04;;;;;;;1.13;1.03;;;5.70;80.40;;;;;;5079976;28;20543;-85
2023/04/04 10:52:26;;;;;;;0.93;0.90;;;6.40;82.10;;;;;;5084024;28;21026;-83
2023/04/04 10:55:05;;;;;;;1.10;1.00;;;6.60;78.70;;;;;;5098275;28;20436;-85
2023/04/04 10:57:32;;;;;;;1.10;1.00;;;6.80;79.30;;;;;;5098848;28;20456;-86
2023/04/04 11:00:07;;;;;;;1.50;1.40;;;7.10;79.70;;;;;;5090881;28;20435;-84
2023/04/04 11:02:52;;;;;;;1.00;0.90;;;7.40;81.60;;;;;;5092327;28;20424;-85
2023/04/04 11:05:29;;;;;;;1.27;1.00;;;7.30;80.10;;;;;;5100189;28;20431;-85
2023/04/04 11:08:01;;;;;;;1.10;1.00;;;7.10;80.40;;;;;;5091301;28;20474;-84
2023/04/04 11:10:32;;;;;;;1.43;1.33;;;6.80;78.90;;;;;;5092170;28;20464;-84
2023/04/04 11:13:06;;;;;;;1.10;1.00;;;6.90;79.40;;;;;;5083010;28;20470;-85
2023/04/04 11:16:03;;;;;;;1.10;1.00;;;7.10;80.30;;;;;;5092789;28;20545;-84
2023/04/04 11:18:42;;;;;;;1.20;1.10;;;7.60;79.50;;;;;;5091500;28;20523;-84
2023/04/04 11:21:23;;;;;;;0.93;0.83;;;7.70;79.10;;;;;;5100041;28;20440;-84
2023/04/04 11:24:03;;;;;;;1.17;1.07;;;7.70;77.10;;;;;;5100211;28;20429;-85
2023/04/04 11:26:29;;;;;;;1.07;1.03;;;7.50;77.90;;;;;;5098674;28;20423;-85
2023/04/04 11:28:59;;;;;;;2.50;1.67;;;7.40;78.40;;;;;;5090905;28;20424;-88
2023/04/04 11:31:26;;;;;;;0.90;0.80;;;7.60;78.60;;;;;;5075301;22;20256;-86
2023/04/04 11:34:11;;;;;;;5.80;1.67;;;7.90;78.80;;;;;;4998895;28;20841;-87
2023/04/04 11:36:36;;;;;;;1.57;1.57;;;8.00;78.00;;;;;;5002589;28;20431;-87
2023/04/04 11:39:08;;;;;;;0.90;0.80;;;8.10;74.60;;;;;;5000852;28;20958;-86
2023/04/04 11:41:56;;;;;;;1.00;0.90;;;8.10;77.20;;;;;;5004011;28;20204;-86
2023/04/04 11:44:24;;;;;;;1.40;1.30;;;8.00;77.60;;;;;;5008909;28;20805;-86
2023/04/04 11:47:03;;;;;;;1.10;1.00;;;7.70;79.50;;;;;;5007171;28;20434;-86
2023/04/04 11:49:30;;;;;;;1.10;1.00;;;7.40;77.90;;;;;;5000304;28;20936;-86
2023/04/04 11:51:56;;;;;;;1.33;1.23;;;7.30;78.80;;;;;;4999480;28;20544;-85
2023/04/04 11:54:23;;;;;;;1.10;1.00;;;7.30;78.80;;;;;;5010600;28;20594;-86
2023/04/04 11:56:49;;;;;;;0.90;0.80;;;7.50;78.50;;;;;;5000066;28;20821;-86
2023/04/04 11:59:19;;;;;;;1.20;1.10;;;7.70;79.40;;;;;;5007225;28;20465;-86
2023/04/04 12:01:46;;;;;;;1.00;0.90;;;7.90;78.10;;;;;;4999450;28;20458;-86
2023/04/04 12:04:13;;;;;;;1.33;1.23;;;8.00;75.80;;;;;;5003336;28;20495;-86
2023/04/04 12:06:39;;;;;;;1.93;1.40;;;8.00;75.00;;;;;;5003476;28;20778;-86
2023/04/04 12:09:05;;;;;;;1.40;1.30;;;8.10;75.80;;;;;;5003005;28;20481;-86
2023/04/04 12:11:36;;;;;;;1.33;1.23;;;8.20;76.60;;;;;;5004221;28;20204;-86
2023/04/04 12:14:01;;;;;;;1.00;0.90;;;8.30;76.30;;;;;;5012454;28;20456;-86
2023/04/04 12:16:27;;;;;;;1.27;1.17;;;8.10;74.60;;;;;;5007791;28;20409;-86
2023/04/04 12:18:52;;;;;;;1.40;1.30;;;7.80;75.10;;;;;;4999754;28;20185;-88
2023/04/04 12:21:19;;;;;;;1.13;1.07;;;7.70;75.80;;;;;;5001620;28;20205;-86
2023/04/04 12:23:46;;;;;;;1.40;1.30;;;7.70;76.50;;;;;;5003393;28;20378;-86
2023/04/04 12:26:11;;;;;;;1.10;1.00;;;7.70;76.90;;;;;;5001730;28;20427;-85
2023/04/04 12:28:38;;;;;;;1.10;1.00;;;7.70;77.30;;;;;;4999534;28;20425;-86
2023/04/04 12:31:07;;;;;;;1.20;1.10;;;7.70;77.50;;;;;;4999928;28;20686;-85
2023/04/04 12:33:33;;;;;;;1.20;1.10;;;7.70;78.00;;;;;;5011047;28;20424;-86
2023/04/04 12:36:02;;;;;;;0.90;0.80;;;7.60;76.90;;;;;;5006913;28;20507;-89
2023/04/04 12:38:29;;;;;;;1.83;1.73;;;7.70;76.80;;;;;;4994724;28;20503;-88
2023/04/04 12:40:58;;;;;;;1.00;0.90;;;7.90;75.20;;;;;;4999168;28;20453;-86
2023/04/04 12:43:28;;;;;;;2.87;1.27;;;8.10;74.60;;;;;;5002638;28;20416;-86
2023/04/04 12:45:57;;;;;;;2.93;1.37;;;8.30;74.20;;;;;;5003847;28;20429;-87
2023/04/04 12:48:36;;;;;;;1.10;1.00;;;8.40;75.70;;;;;;5001791;28;20420;-86
2023/04/04 12:52:06;;;;;;;1.00;0.90;;;8.50;75.50;;;;;;5002570;28;20479;-86
2023/04/04 12:55:08;;;;;;;0.93;0.83;;;8.60;75.10;;;;;;5000304;28;20420;-86
2023/04/04 12:57:45;;;;;;;5.70;1.23;;;8.60;74.60;;;;;;4998821;28;20455;-86
2023/04/04 13:03:26;;;;;;;1.00;0.90;;;9.40;74.90;;;;;;4994092;28;20416;-86
2023/04/04 13:05:54;;;;;;;2.60;2.10;;;9.70;72.70;;;;;;4999094;28;20457;-86
2023/04/04 13:08:25;;;;;;;1.37;1.37;;;9.50;71.40;;;;;;5010324;28;20889;-86
2023/04/04 13:11:03;;;;;;;4.47;2.17;;;9.40;72.50;;;;;;5004080;28;20567;-86
2023/04/04 13:13:42;;;;;;;6.63;3.53;;;9.20;71.90;;;;;;5006495;28;20500;-86
2023/04/04 13:16:09;;;;;;;2.60;2.20;;;9.00;72.20;;;;;;5006189;28;20438;-87
2023/04/04 13:18:37;;;;;;;1.40;1.30;;;8.70;71.60;;;;;;5009124;28;20430;-86
2023/04/04 13:21:05;;;;;;;1.00;0.90;;;8.50;72.30;;;;;;5010917;28;20436;-86
2023/04/04 13:23:32;;;;;;;1.00;0.90;;;8.30;73.30;;;;;;5006071;28;20432;-87
2023/04/04 13:25:58;;;;;;;1.43;1.37;;;8.10;74.80;;;;;;5002127;28;20414;-87
2023/04/04 13:28:25;;;;;;;1.20;1.10;;;8.10;74.80;;;;;;5000463;28;20428;-87
2023/04/04 13:31:06;;;;;;;0.90;0.80;;;8.00;74.40;;;;;;5001578;28;20468;-87